Time;durP1;ratioP1;P1;durP2;ratioP2;P2;SDS_P1;SDS_P2;PMS_P1;PMS_P2;Temp;Humidity;BMP_temperature;BMP_pressure;BME280_temperature;BME280_humidity;BME280_pressure;Samples;Min_cycle;Max_cycle;Signal;HPM_P1;HPM_P2
2022/10/22 00:01:16;;;;;;;15.85;8.10;;;11.80;99.90;;;;;;5110502;27;20513;-78
2022/10/22 00:03:42;;;;;;;14.00;8.65;;;11.60;99.90;;;;;;5132979;27;20035;-79
2022/10/22 00:06:07;;;;;;;21.48;8.73;;;11.70;99.90;;;;;;5131143;27;20537;-78
2022/10/22 00:08:33;;;;;;;15.20;8.82;;;11.70;99.90;;;;;;5131592;27;20373;-78
2022/10/22 00:11:06;;;;;;;17.63;9.35;;;11.70;99.90;;;;;;5130191;27;20156;-80
2022/10/22 00:13:32;;;;;;;11.75;7.88;;;11.60;99.90;;;;;;5131093;27;20121;-76
2022/10/22 00:15:57;;;;;;;18.38;9.38;;;11.60;99.90;;;;;;5127063;27;20137;-78
2022/10/22 00:18:23;;;;;;;17.13;9.48;;;11.50;99.90;;;;;;5121497;27;20046;-78
2022/10/22 00:20:48;;;;;;;17.23;10.15;;;11.60;99.90;;;;;;5128827;27;20479;-76
2022/10/22 00:23:14;;;;;;;17.15;9.32;;;11.50;99.90;;;;;;5125504;27;20035;-79
2022/10/22 00:25:40;;;;;;;19.17;10.52;;;11.50;99.90;;;;;;5131703;27;20030;-79
2022/10/22 00:28:05;;;;;;;26.63;11.65;;;11.50;99.90;;;;;;5112170;27;20489;-80
2022/10/22 00:30:31;;;;;;;20.42;10.45;;;11.50;99.90;;;;;;5144897;27;20107;-78
2022/10/22 00:32:57;;;;;;;19.75;10.80;;;11.50;99.90;;;;;;5129084;27;20492;-76
2022/10/22 00:35:22;;;;;;;19.55;10.88;;;11.70;99.90;;;;;;5133703;27;20089;-77
2022/10/22 00:37:48;;;;;;;18.30;10.88;;;11.70;99.90;;;;;;5132978;27;20035;-79
2022/10/22 00:40:13;;;;;;;20.08;10.60;;;11.60;99.90;;;;;;5141038;27;20070;-78
2022/10/22 00:42:39;;;;;;;20.80;10.20;;;11.70;99.90;;;;;;5138757;27;20146;-81
2022/10/22 00:45:11;;;;;;;30.17;10.65;;;11.60;99.90;;;;;;5134457;27;20135;-81
2022/10/22 00:47:45;;;;;;;17.63;10.45;;;11.50;99.90;;;;;;5128397;27;20118;-79
2022/10/22 00:50:16;;;;;;;14.98;10.20;;;11.60;99.90;;;;;;5111779;27;20045;-77
2022/10/22 00:52:42;;;;;;;25.73;10.32;;;11.40;99.90;;;;;;5109064;27;20137;-78
2022/10/22 00:55:10;;;;;;;20.65;10.35;;;11.40;99.90;;;;;;5130412;27;20545;-78
2022/10/22 00:57:36;;;;;;;19.08;10.75;;;11.40;99.90;;;;;;5122678;27;20118;-77
2022/10/22 01:00:03;;;;;;;19.65;10.57;;;11.40;99.90;;;;;;5105850;27;20182;-76
2022/10/22 01:02:29;;;;;;;17.67;11.52;;;11.40;99.90;;;;;;5128212;27;20039;-78
2022/10/22 01:04:55;;;;;;;18.30;10.90;;;11.40;99.90;;;;;;5097323;27;20446;-79
2022/10/22 01:07:23;;;;;;;25.30;11.63;;;11.50;99.90;;;;;;5109071;27;20468;-78
2022/10/22 01:10:16;;;;;;;23.20;11.20;;;11.50;99.90;;;;;;5125955;27;20043;-79
2022/10/22 01:13:00;;;;;;;20.60;11.38;;;11.50;99.90;;;;;;5110814;27;20042;-80
2022/10/22 01:15:46;;;;;;;25.88;11.85;;;11.50;99.90;;;;;;5127973;27;20774;-78
2022/10/22 01:18:51;;;;;;;23.10;11.90;;;11.40;99.90;;;;;;5126444;27;20053;-79
2022/10/22 01:21:35;;;;;;;27.73;12.32;;;11.50;99.90;;;;;;5105455;27;20050;-80
2022/10/22 01:24:38;;;;;;;24.98;12.10;;;11.50;99.90;;;;;;5108341;27;20031;-77
2022/10/22 01:27:28;;;;;;;24.65;13.20;;;11.60;99.90;;;;;;5128436;27;20128;-78
2022/10/22 01:30:00;;;;;;;26.13;13.02;;;11.70;99.90;;;;;;5123607;27;20415;-78
2022/10/22 01:32:30;;;;;;;28.45;13.25;;;11.70;99.90;;;;;;5126814;27;20083;-79
2022/10/22 01:35:01;;;;;;;21.90;13.20;;;11.80;99.90;;;;;;5107150;27;20039;-80
2022/10/22 01:37:33;;;;;;;22.02;13.13;;;11.80;99.90;;;;;;5124261;27;20039;-79
2022/10/22 01:40:00;;;;;;;22.52;12.13;;;11.70;99.90;;;;;;5126995;27;20049;-78
2022/10/22 01:42:28;;;;;;;34.83;13.52;;;11.70;99.90;;;;;;5124819;27;20541;-79
2022/10/22 01:44:54;;;;;;;26.00;11.90;;;11.70;99.90;;;;;;5108036;27;20110;-76
2022/10/22 01:47:29;;;;;;;23.65;11.82;;;11.80;99.90;;;;;;5129361;27;20486;-80
2022/10/22 01:50:17;;;;;;;21.17;12.88;;;11.80;99.90;;;;;;5129771;27;20041;-78
2022/10/22 01:53:27;;;;;;;23.40;11.80;;;11.80;99.90;;;;;;5105672;27;20462;-79
2022/10/22 01:56:11;;;;;;;20.40;11.15;;;11.70;99.90;;;;;;5021592;28;20049;-79
2022/10/22 01:59:02;;;;;;;27.42;11.15;;;11.80;99.90;;;;;;5012200;28;20049;-81
2022/10/22 02:01:35;;;;;;;17.52;10.38;;;11.70;99.90;;;;;;5024586;28;20132;-80
2022/10/22 02:04:21;;;;;;;22.80;10.38;;;11.60;99.90;;;;;;5025189;28;20120;-77
2022/10/22 02:06:49;;;;;;;29.65;10.98;;;11.60;99.90;;;;;;5025320;28;20167;-77
2022/10/22 02:09:17;;;;;;;23.83;10.75;;;11.70;99.90;;;;;;5030542;28;20212;-80
2022/10/22 02:11:46;;;;;;;25.77;10.82;;;11.60;99.90;;;;;;5048648;28;20401;-79
2022/10/22 02:14:12;;;;;;;17.30;9.80;;;11.70;99.90;;;;;;5037111;28;20059;-80
2022/10/22 02:16:44;;;;;;;21.10;11.20;;;11.60;99.90;;;;;;5030857;28;20049;-78
2022/10/22 02:19:25;;;;;;;27.02;10.77;;;11.60;99.90;;;;;;5041643;28;20053;-81
2022/10/22 02:21:51;;;;;;;21.67;10.38;;;11.70;99.90;;;;;;5022133;28;20048;-82
2022/10/22 02:24:17;;;;;;;18.75;10.43;;;11.70;99.90;;;;;;5008826;28;20045;-80
2022/10/22 02:27:04;;;;;;;20.23;10.77;;;11.70;99.90;;;;;;5041240;28;20060;-79
2022/10/22 02:30:00;;;;;;;18.38;10.75;;;11.60;99.90;;;;;;5025128;28;20048;-79
2022/10/22 02:32:33;;;;;;;22.23;11.48;;;11.70;99.90;;;;;;5091917;27;20051;-80
2022/10/22 02:35:00;;;;;;;21.38;10.60;;;11.90;99.90;;;;;;5130766;27;20039;-79
2022/10/22 02:37:29;;;;;;;23.13;11.55;;;11.70;99.90;;;;;;5128362;27;20026;-80
2022/10/22 02:39:55;;;;;;;24.17;10.40;;;11.90;99.90;;;;;;5128822;27;20031;-79
2022/10/22 02:42:23;;;;;;;20.48;11.98;;;11.90;99.90;;;;;;5105234;27;20054;-79
2022/10/22 02:44:49;;;;;;;25.05;11.27;;;11.90;99.90;;;;;;5105693;27;20039;-76
2022/10/22 02:47:14;;;;;;;20.80;10.40;;;11.90;99.90;;;;;;5125918;27;20809;-80
2022/10/22 02:49:40;;;;;;;24.10;11.25;;;11.90;99.90;;;;;;5104837;27;20043;-78
2022/10/22 02:52:05;;;;;;;21.10;10.88;;;11.90;99.90;;;;;;5109684;27;20038;-80
2022/10/22 02:54:31;;;;;;;21.50;11.10;;;11.90;99.90;;;;;;5131735;27;20043;-78
2022/10/22 02:56:57;;;;;;;30.00;11.27;;;11.90;99.90;;;;;;5132906;27;20111;-77
2022/10/22 02:59:22;;;;;;;26.67;11.90;;;12.00;99.90;;;;;;5114882;27;20050;-78
2022/10/22 03:01:48;;;;;;;24.58;11.63;;;12.10;99.90;;;;;;5112599;27;20055;-79
2022/10/22 03:04:17;;;;;;;26.20;12.13;;;12.00;99.90;;;;;;5148180;27;20039;-78
2022/10/22 03:06:43;;;;;;;26.38;11.27;;;12.00;99.90;;;;;;5128898;27;20045;-79
2022/10/22 03:09:09;;;;;;;19.27;11.07;;;12.10;99.90;;;;;;5128801;27;20042;-81
2022/10/22 03:11:36;;;;;;;23.02;10.98;;;12.10;99.90;;;;;;5131588;27;20030;-77
2022/10/22 03:14:01;;;;;;;19.45;10.90;;;12.20;99.90;;;;;;5108713;27;20174;-80
2022/10/22 03:16:27;;;;;;;30.60;11.75;;;12.20;99.90;;;;;;5132524;27;20120;-79
2022/10/22 03:18:53;;;;;;;23.45;10.75;;;12.20;99.90;;;;;;5131738;27;21858;-79
2022/10/22 03:21:39;;;;;;;23.23;10.45;;;12.00;99.90;;;;;;5116100;27;20039;-77
2022/10/22 03:24:10;;;;;;;25.27;11.02;;;12.00;99.90;;;;;;5115732;27;20091;-77
2022/10/22 03:26:38;;;;;;;21.83;11.15;;;12.00;99.90;;;;;;5132345;27;20050;-79
2022/10/22 03:29:04;;;;;;;20.75;10.80;;;12.10;99.90;;;;;;5130871;27;20430;-78
2022/10/22 03:31:29;;;;;;;22.50;11.00;;;12.10;99.90;;;;;;5132712;27;20233;-80
2022/10/22 03:33:55;;;;;;;26.13;11.50;;;11.90;99.90;;;;;;5115039;27;20035;-80
2022/10/22 03:36:21;;;;;;;21.70;11.18;;;12.10;99.90;;;;;;5132220;27;21711;-77
2022/10/22 03:38:47;;;;;;;27.92;10.57;;;11.90;99.90;;;;;;5118079;27;20035;-78
2022/10/22 03:41:13;;;;;;;19.70;10.27;;;11.80;99.90;;;;;;5134160;27;20034;-80
2022/10/22 03:43:40;;;;;;;27.38;10.57;;;11.90;99.90;;;;;;5120741;27;20027;-78
2022/10/22 03:46:06;;;;;;;24.42;11.73;;;11.80;99.90;;;;;;5132766;27;20110;-78
2022/10/22 03:48:32;;;;;;;28.50;10.93;;;11.80;99.90;;;;;;5118105;27;20455;-78
2022/10/22 03:50:57;;;;;;;23.67;11.38;;;11.80;99.90;;;;;;5127142;27;20061;-78
2022/10/22 03:53:23;;;;;;;23.33;11.40;;;11.90;99.90;;;;;;5128053;27;20042;-81
2022/10/22 03:55:49;;;;;;;23.27;11.80;;;11.80;99.90;;;;;;5133283;27;20106;-80
2022/10/22 03:58:15;;;;;;;25.65;11.23;;;11.80;99.90;;;;;;5130396;27;20386;-78
2022/10/22 04:00:40;;;;;;;25.05;11.55;;;11.80;99.90;;;;;;5109971;27;20039;-79
2022/10/22 04:03:06;;;;;;;25.63;11.07;;;11.80;99.90;;;;;;5109499;27;20050;-77
2022/10/22 04:05:33;;;;;;;27.45;11.63;;;11.70;99.90;;;;;;5129545;27;20038;-79
2022/10/22 04:07:59;;;;;;;23.20;11.75;;;11.80;99.90;;;;;;5129198;27;20042;-77
2022/10/22 04:10:25;;;;;;;25.45;11.68;;;11.70;99.90;;;;;;5126518;27;20049;-80
2022/10/22 04:12:50;;;;;;;27.73;11.75;;;11.70;99.90;;;;;;5112053;27;20039;-80
2022/10/22 04:15:16;;;;;;;20.50;11.85;;;11.70;99.90;;;;;;5124274;27;20618;-79
2022/10/22 04:17:42;;;;;;;33.42;11.65;;;11.70;99.90;;;;;;5130893;27;20125;-77
2022/10/22 04:20:09;;;;;;;22.45;11.88;;;11.70;99.90;;;;;;5111888;27;20054;-78
2022/10/22 04:22:35;;;;;;;25.20;12.25;;;11.70;99.90;;;;;;5094530;27;20046;-80
2022/10/22 04:25:02;;;;;;;25.25;12.38;;;11.70;99.90;;;;;;5110348;27;20047;-77
2022/10/22 04:27:30;;;;;;;26.17;11.85;;;11.60;99.90;;;;;;5113327;27;20066;-79
2022/10/22 04:29:57;;;;;;;25.83;12.57;;;11.70;99.90;;;;;;5127125;27;20034;-81
2022/10/22 04:32:23;;;;;;;27.08;11.68;;;11.80;99.90;;;;;;5126452;27;20045;-78
2022/10/22 04:34:48;;;;;;;26.33;12.55;;;11.60;99.90;;;;;;5130642;27;20043;-81
2022/10/22 04:37:14;;;;;;;31.33;12.43;;;11.70;99.90;;;;;;5110898;27;20343;-79
2022/10/22 04:39:39;;;;;;;30.13;13.20;;;11.60;99.90;;;;;;5129709;27;20839;-81
2022/10/22 04:42:05;;;;;;;27.15;12.55;;;11.60;99.90;;;;;;5108688;27;20037;-78
2022/10/22 04:44:31;;;;;;;28.50;12.57;;;11.40;99.90;;;;;;5102002;27;20047;-75
2022/10/22 04:46:58;;;;;;;27.92;12.30;;;11.60;99.90;;;;;;5106572;27;20177;-78
2022/10/22 04:49:23;;;;;;;32.65;13.18;;;11.70;99.90;;;;;;5111708;27;20047;-80
2022/10/22 04:51:49;;;;;;;31.92;13.38;;;11.70;99.90;;;;;;5110206;27;20464;-80
2022/10/22 04:54:15;;;;;;;27.42;12.55;;;11.60;99.90;;;;;;5129602;27;20192;-80
2022/10/22 04:56:40;;;;;;;25.45;12.95;;;11.80;99.90;;;;;;5112384;27;20423;-79
2022/10/22 04:59:07;;;;;;;22.52;12.35;;;11.60;99.90;;;;;;5127362;27;20137;-78
2022/10/22 05:01:40;;;;;;;28.88;12.90;;;11.60;99.90;;;;;;5108742;27;20037;-77
2022/10/22 05:04:09;;;;;;;24.00;12.38;;;11.60;99.90;;;;;;5112179;27;20541;-77
2022/10/22 05:06:36;;;;;;;26.23;13.63;;;11.70;99.90;;;;;;5125106;27;20139;-75
2022/10/22 05:09:05;;;;;;;27.63;12.27;;;11.70;99.90;;;;;;5143849;27;20066;-78
2022/10/22 05:11:36;;;;;;;25.90;12.95;;;11.60;99.90;;;;;;5114455;27;20055;-81
2022/10/22 05:14:04;;;;;;;25.15;12.77;;;11.60;99.90;;;;;;5131403;27;20045;-78
2022/10/22 05:16:32;;;;;;;22.92;13.20;;;11.70;99.90;;;;;;5138345;27;20482;-78
2022/10/22 05:18:59;;;;;;;23.42;13.25;;;11.60;99.90;;;;;;5135664;27;20091;-80
2022/10/22 05:21:25;;;;;;;27.98;12.70;;;11.60;99.90;;;;;;5092113;27;20053;-77
2022/10/22 05:23:53;;;;;;;23.55;13.38;;;11.60;99.90;;;;;;5109922;27;20194;-82
2022/10/22 05:26:20;;;;;;;25.77;12.93;;;11.70;99.90;;;;;;5108816;27;20193;-78
2022/10/22 05:28:48;;;;;;;26.65;12.90;;;11.60;99.90;;;;;;5125064;27;20031;-79
2022/10/22 05:31:14;;;;;;;28.33;13.27;;;11.60;99.90;;;;;;5108865;27;20054;-80
2022/10/22 05:33:41;;;;;;;30.10;13.88;;;11.50;99.90;;;;;;5108094;27;20049;-80
2022/10/22 05:36:09;;;;;;;28.90;13.80;;;11.50;99.90;;;;;;5109174;27;20026;-77
2022/10/22 05:38:35;;;;;;;28.27;13.68;;;11.60;99.90;;;;;;5109962;27;20041;-81
2022/10/22 05:41:06;;;;;;;29.08;13.13;;;11.60;99.90;;;;;;5128381;27;20030;-81
2022/10/22 05:43:32;;;;;;;26.55;13.07;;;11.60;99.90;;;;;;5126362;27;20038;-79
2022/10/22 05:46:09;;;;;;;24.67;13.55;;;11.60;99.90;;;;;;5099787;27;20035;-80
2022/10/22 05:48:35;;;;;;;25.13;13.32;;;11.60;99.90;;;;;;5094451;27;20053;-78
2022/10/22 05:51:09;;;;;;;26.30;12.65;;;11.50;99.90;;;;;;5125265;27;20038;-81
2022/10/22 05:53:37;;;;;;;23.77;13.48;;;11.50;99.90;;;;;;5129855;27;20054;-79
2022/10/22 05:56:09;;;;;;;27.58;13.70;;;11.50;99.90;;;;;;5112680;27;20046;-77
2022/10/22 05:58:35;;;;;;;32.30;14.05;;;11.70;99.90;;;;;;5128880;27;20508;-80
2022/10/22 06:01:07;;;;;;;29.13;13.77;;;11.60;99.90;;;;;;5109439;27;20046;-77
2022/10/22 06:03:33;;;;;;;30.83;14.35;;;11.80;99.90;;;;;;5127328;27;20039;-79
2022/10/22 06:06:00;;;;;;;31.23;14.43;;;11.70;99.90;;;;;;5109856;27;20382;-81
2022/10/22 06:08:27;;;;;;;31.48;13.77;;;11.70;99.90;;;;;;5125944;27;20125;-78
2022/10/22 06:10:53;;;;;;;29.27;13.70;;;11.70;99.90;;;;;;5110810;27;20053;-77
2022/10/22 06:13:18;;;;;;;24.85;13.88;;;11.80;99.90;;;;;;5108463;27;20391;-78
2022/10/22 06:15:44;;;;;;;33.45;13.63;;;11.80;99.90;;;;;;5109276;27;20043;-80
2022/10/22 06:18:11;;;;;;;28.77;15.13;;;11.80;99.90;;;;;;5125431;27;20077;-80
2022/10/22 06:20:36;;;;;;;29.05;13.60;;;11.80;99.90;;;;;;5110124;27;20031;-77
2022/10/22 06:23:02;;;;;;;27.33;14.07;;;11.80;99.90;;;;;;5110330;27;20039;-79
2022/10/22 06:25:28;;;;;;;33.25;14.93;;;11.80;99.90;;;;;;5128492;27;20076;-82
2022/10/22 06:27:53;;;;;;;31.48;13.95;;;11.70;99.90;;;;;;5108345;27;20035;-78
2022/10/22 06:30:19;;;;;;;34.15;13.40;;;11.80;99.90;;;;;;5108274;27;20083;-79
2022/10/22 06:32:44;;;;;;;27.40;13.48;;;11.80;99.90;;;;;;5129133;27;20145;-77
2022/10/22 06:35:10;;;;;;;30.30;13.65;;;11.70;99.90;;;;;;5126829;27;20440;-80
2022/10/22 06:37:36;;;;;;;35.72;14.57;;;11.80;99.90;;;;;;5128570;27;20438;-79
2022/10/22 06:40:03;;;;;;;30.60;13.95;;;11.80;99.90;;;;;;5111239;27;20115;-77
2022/10/22 06:42:29;;;;;;;27.20;14.18;;;11.90;99.90;;;;;;5134443;27;20123;-80
2022/10/22 06:44:54;;;;;;;30.92;14.05;;;11.90;99.90;;;;;;5114046;27;20035;-78
2022/10/22 06:47:20;;;;;;;31.17;13.93;;;11.90;99.90;;;;;;5135489;27;20678;-77
2022/10/22 06:49:47;;;;;;;35.25;13.55;;;11.90;99.90;;;;;;5131054;27;20046;-81
2022/10/22 06:52:13;;;;;;;23.30;12.93;;;12.00;99.90;;;;;;5109380;27;20047;-79
2022/10/22 06:54:39;;;;;;;30.60;13.85;;;11.90;99.90;;;;;;5123176;27;20371;-81
2022/10/22 06:57:05;;;;;;;29.92;13.98;;;12.00;99.90;;;;;;5123393;27;20107;-79
2022/10/22 06:59:30;;;;;;;31.23;13.30;;;12.20;99.90;;;;;;5124640;27;20358;-80
2022/10/22 07:01:56;;;;;;;26.23;13.27;;;12.20;99.90;;;;;;5126761;27;20042;-78
2022/10/22 07:04:22;;;;;;;23.63;12.82;;;12.20;99.90;;;;;;5127820;27;20047;-77
2022/10/22 07:06:47;;;;;;;30.33;13.38;;;12.30;99.90;;;;;;5107272;27;20057;-76
2022/10/22 07:09:13;;;;;;;26.20;12.35;;;12.40;99.90;;;;;;5110052;27;20047;-78
2022/10/22 07:11:41;;;;;;;26.75;12.75;;;12.50;99.90;;;;;;5108919;27;20043;-81
2022/10/22 07:14:07;;;;;;;26.50;13.30;;;12.40;99.90;;;;;;5127793;27;20137;-80
2022/10/22 07:16:33;;;;;;;30.33;12.38;;;12.60;99.90;;;;;;5112743;27;20441;-79
2022/10/22 07:19:00;;;;;;;24.60;11.77;;;12.60;99.90;;;;;;5125206;27;20054;-77
2022/10/22 07:21:26;;;;;;;26.85;11.85;;;12.70;99.90;;;;;;5124125;27;20046;-79
2022/10/22 07:23:52;;;;;;;24.52;11.15;;;12.60;99.90;;;;;;5105075;27;20090;-78
2022/10/22 07:26:21;;;;;;;25.40;10.73;;;12.80;99.90;;;;;;5129083;27;20054;-79
2022/10/22 07:28:47;;;;;;;26.52;11.63;;;12.80;99.90;;;;;;5106951;27;20102;-79
2022/10/22 07:31:14;;;;;;;26.13;11.05;;;12.70;99.90;;;;;;5088379;27;20053;-79
2022/10/22 07:33:40;;;;;;;24.42;10.18;;;12.80;99.90;;;;;;5127891;27;20520;-80
2022/10/22 07:36:09;;;;;;;28.65;10.48;;;12.80;99.90;;;;;;5150352;27;20034;-78
2022/10/22 07:38:35;;;;;;;25.17;9.63;;;12.80;99.90;;;;;;5109204;27;20043;-83
2022/10/22 07:41:01;;;;;;;22.05;9.57;;;13.00;99.90;;;;;;5124393;27;20070;-79
2022/10/22 07:43:26;;;;;;;23.80;9.73;;;12.90;99.90;;;;;;5125173;27;20062;-79
2022/10/22 07:45:54;;;;;;;19.10;9.88;;;12.90;99.90;;;;;;5129679;27;20459;-80
2022/10/22 07:48:20;;;;;;;27.35;9.80;;;12.90;99.90;;;;;;5113620;27;20096;-76
2022/10/22 07:50:49;;;;;;;22.50;9.50;;;13.00;99.90;;;;;;5130016;27;21330;-77
2022/10/22 07:53:15;;;;;;;20.67;9.30;;;13.10;99.90;;;;;;5112736;27;20133;-82
2022/10/22 07:55:40;;;;;;;20.55;9.50;;;13.00;99.90;;;;;;5124831;27;20126;-81
2022/10/22 07:58:06;;;;;;;25.15;9.50;;;13.00;99.90;;;;;;5125883;27;20042;-80
2022/10/22 08:00:33;;;;;;;21.13;9.13;;;13.20;99.90;;;;;;5130670;27;20042;-80
2022/10/22 08:02:59;;;;;;;21.60;9.52;;;13.10;99.90;;;;;;5111351;27;20045;-81
2022/10/22 08:05:25;;;;;;;23.92;8.85;;;13.10;99.90;;;;;;5134233;27;20043;-80
2022/10/22 08:07:50;;;;;;;23.83;9.52;;;13.20;99.90;;;;;;5119297;27;20043;-77
2022/10/22 08:10:16;;;;;;;21.95;9.05;;;13.10;99.90;;;;;;5122772;27;20427;-81
2022/10/22 08:12:42;;;;;;;19.58;8.38;;;13.20;99.90;;;;;;5135448;27;20057;-77
2022/10/22 08:15:08;;;;;;;25.88;8.05;;;13.30;99.90;;;;;;5141940;27;20125;-79
2022/10/22 08:17:34;;;;;;;16.20;8.30;;;13.20;99.90;;;;;;5129390;27;20047;-77
2022/10/22 08:20:00;;;;;;;20.13;7.78;;;13.20;99.90;;;;;;5137256;27;20053;-78
2022/10/22 08:22:25;;;;;;;20.35;7.53;;;13.30;99.90;;;;;;5118305;27;20042;-78
2022/10/22 08:24:52;;;;;;;21.63;7.38;;;13.40;99.90;;;;;;5119461;27;20331;-77
2022/10/22 08:27:17;;;;;;;17.38;7.35;;;13.30;99.90;;;;;;5136619;27;20038;-80
2022/10/22 08:29:43;;;;;;;19.85;7.20;;;13.50;99.90;;;;;;5136228;27;20092;-76
2022/10/22 08:32:09;;;;;;;24.52;8.13;;;13.40;99.90;;;;;;5124373;27;20530;-80
2022/10/22 08:34:37;;;;;;;19.65;7.43;;;13.50;99.90;;;;;;5113672;27;20042;-79
2022/10/22 08:37:04;;;;;;;18.63;6.97;;;13.70;99.90;;;;;;5110286;27;20051;-81
2022/10/22 08:39:30;;;;;;;20.50;7.20;;;13.70;99.90;;;;;;5129156;27;20050;-80
2022/10/22 08:42:06;;;;;;;14.93;6.35;;;13.90;99.90;;;;;;5134029;27;20037;-79
2022/10/22 08:44:58;;;;;;;18.20;6.80;;;14.00;99.90;;;;;;5133840;27;20050;-77
2022/10/22 08:47:39;;;;;;;15.90;6.43;;;13.90;99.90;;;;;;5136120;27;20058;-81
2022/10/22 08:50:08;;;;;;;20.45;6.22;;;14.00;99.90;;;;;;5128259;27;20516;-78
2022/10/22 08:52:35;;;;;;;18.38;5.85;;;14.20;99.90;;;;;;5127573;27;20121;-78
2022/10/22 08:55:02;;;;;;;18.98;6.50;;;14.20;99.90;;;;;;5115443;27;20050;-78
2022/10/22 08:57:39;;;;;;;21.98;6.50;;;14.40;99.90;;;;;;5110174;27;20046;-77
2022/10/22 09:00:33;;;;;;;22.50;5.80;;;14.30;99.90;;;;;;5125817;27;20035;-80
2022/10/22 09:03:11;;;;;;;17.42;5.47;;;14.40;99.90;;;;;;5126474;27;20142;-78
2022/10/22 09:06:00;;;;;;;19.80;5.47;;;14.60;99.90;;;;;;5104405;27;20043;-77
2022/10/22 09:08:26;;;;;;;19.75;5.57;;;14.60;99.90;;;;;;5109222;27;20401;-76
2022/10/22 09:11:02;;;;;;;19.85;6.22;;;14.70;99.90;;;;;;5106723;27;20047;-77
2022/10/22 09:13:28;;;;;;;20.02;5.13;;;14.80;99.90;;;;;;5145559;27;20342;-78
2022/10/22 09:15:59;;;;;;;22.08;4.90;;;15.00;99.90;;;;;;5110153;27;20189;-77
2022/10/22 09:18:48;;;;;;;22.42;5.50;;;14.80;99.90;;;;;;5139846;27;20058;-77
2022/10/22 09:21:35;;;;;;;15.27;4.75;;;14.90;99.90;;;;;;5108604;27;20074;-79
2022/10/22 09:24:21;;;;;;;45.47;13.98;;;14.90;99.90;;;;;;5127456;27;20485;-75
2022/10/22 09:26:46;;;;;;;21.45;5.50;;;15.10;99.90;;;;;;5125960;27;20039;-78
2022/10/22 09:29:30;;;;;;;19.83;5.53;;;15.20;99.90;;;;;;5133321;27;20386;-80
2022/10/22 09:31:55;;;;;;;19.75;5.13;;;15.20;99.90;;;;;;5134964;27;20042;-77
2022/10/22 09:34:21;;;;;;;22.95;6.72;;;15.30;99.90;;;;;;5115615;27;20386;-76
2022/10/22 09:36:55;;;;;;;17.20;4.03;;;15.40;99.90;;;;;;5136676;27;20031;-78
2022/10/22 09:39:33;;;;;;;14.70;4.20;;;15.40;99.90;;;;;;5119050;27;20047;-78
2022/10/22 09:41:59;;;;;;;12.93;3.95;;;15.50;99.90;;;;;;5138814;27;20137;-79
2022/10/22 09:44:25;;;;;;;15.10;4.68;;;15.60;99.90;;;;;;5150046;27;20145;-75
2022/10/22 09:46:51;;;;;;;18.50;4.78;;;15.40;99.90;;;;;;5136816;27;20053;-76
2022/10/22 09:49:20;;;;;;;21.10;4.90;;;15.60;99.90;;;;;;5146594;27;20054;-78
2022/10/22 09:51:54;;;;;;;12.30;4.20;;;15.60;99.90;;;;;;5116778;27;20138;-77
2022/10/22 09:54:25;;;;;;;23.45;5.38;;;15.60;99.90;;;;;;5115530;27;20390;-77
2022/10/22 09:57:05;;;;;;;14.73;4.47;;;15.50;99.90;;;;;;5133817;27;20046;-76
2022/10/22 09:59:36;;;;;;;20.08;5.28;;;15.50;99.90;;;;;;5130567;27;20027;-75
2022/10/22 10:02:11;;;;;;;18.38;4.15;;;15.70;99.90;;;;;;5110671;27;20043;-79
2022/10/22 10:04:52;;;;;;;25.42;5.10;;;15.70;99.90;;;;;;5108689;27;20130;-76
2022/10/22 10:07:22;;;;;;;18.52;4.45;;;15.70;99.90;;;;;;5109687;27;20050;-76
2022/10/22 10:09:48;;;;;;;16.45;4.18;;;15.70;99.90;;;;;;5122227;27;20050;-74
2022/10/22 10:12:29;;;;;;;16.90;4.28;;;15.80;99.90;;;;;;5106011;27;20067;-77
2022/10/22 10:15:23;;;;;;;17.63;4.45;;;15.90;99.90;;;;;;5104255;27;20102;-72
2022/10/22 10:18:12;;;;;;;16.67;4.65;;;15.80;99.90;;;;;;5123201;27;20039;-78
2022/10/22 10:21:04;;;;;;;14.07;4.28;;;15.80;99.90;;;;;;5102118;27;20043;-75
2022/10/22 10:23:40;;;;;;;15.73;4.63;;;15.90;99.90;;;;;;5119073;27;20039;-78
2022/10/22 10:26:12;;;;;;;21.17;4.65;;;15.70;99.90;;;;;;5102592;27;20245;-76
2022/10/22 10:29:17;;;;;;;16.63;4.85;;;15.90;99.90;;;;;;5106049;27;20042;-77
2022/10/22 10:31:57;;;;;;;17.85;4.82;;;15.80;99.90;;;;;;5041343;28;20048;-79
2022/10/22 10:34:41;;;;;;;15.18;4.75;;;15.90;99.90;;;;;;5038929;28;20061;-79
2022/10/22 10:37:31;;;;;;;21.10;4.97;;;15.90;99.90;;;;;;5059820;28;20068;-79
2022/10/22 10:40:25;;;;;;;18.10;5.72;;;15.90;99.90;;;;;;5043692;28;20525;-80
2022/10/22 10:43:09;;;;;;;23.75;5.28;;;15.90;99.90;;;;;;5045211;28;20481;-77
2022/10/22 10:45:35;;;;;;;19.80;4.95;;;15.80;99.90;;;;;;5047018;28;20044;-77
2022/10/22 10:48:16;;;;;;;14.00;4.88;;;15.80;99.90;;;;;;5047833;28;20051;-77
2022/10/22 10:51:05;;;;;;;19.80;4.93;;;15.90;99.90;;;;;;5049525;28;20394;-76
2022/10/22 10:53:31;;;;;;;22.77;5.13;;;15.80;99.90;;;;;;5062778;28;20041;-75
2022/10/22 10:56:01;;;;;;;21.13;5.28;;;15.80;99.90;;;;;;5046875;28;20553;-75
2022/10/22 10:58:43;;;;;;;20.42;4.95;;;15.80;99.90;;;;;;5045693;28;20927;-75
2022/10/22 11:01:17;;;;;;;12.38;4.20;;;15.90;99.90;;;;;;5048105;28;20044;-76
2022/10/22 11:04:10;;;;;;;17.43;4.67;;;15.80;99.90;;;;;;5039579;28;20040;-77
2022/10/22 11:06:41;;;;;;;25.15;4.60;;;15.80;99.90;;;;;;5036519;28;20036;-77
2022/10/22 11:09:41;;;;;;;16.90;4.70;;;15.80;99.90;;;;;;5131795;27;20054;-78
2022/10/22 11:12:17;;;;;;;13.73;5.05;;;15.60;99.90;;;;;;5105713;27;20062;-74
2022/10/22 11:15:10;;;;;;;16.58;5.25;;;15.70;99.90;;;;;;5116252;27;20039;-81
2022/10/22 11:17:39;;;;;;;19.20;5.13;;;15.60;99.90;;;;;;5131460;27;20104;-80
2022/10/22 11:20:24;;;;;;;13.57;4.63;;;15.70;99.90;;;;;;5132361;27;20045;-79
2022/10/22 11:23:13;;;;;;;11.90;4.97;;;15.50;99.90;;;;;;5060584;28;20114;-78
2022/10/22 11:25:49;;;;;;;12.98;4.78;;;15.60;99.90;;;;;;5080562;28;20083;-76
2022/10/22 11:28:51;;;;;;;10.88;5.22;;;15.90;99.90;;;;;;5045044;28;20040;-76
2022/10/22 11:31:17;;;;;;;14.50;5.18;;;16.00;99.90;;;;;;5004298;28;20137;-82
2022/10/22 11:33:56;;;;;;;14.05;5.07;;;16.10;99.90;;;;;;4987505;28;20164;-80
2022/10/22 11:36:26;;;;;;;12.60;4.93;;;16.20;99.90;;;;;;5001259;28;20148;-80
2022/10/22 11:38:53;;;;;;;20.17;5.07;;;16.40;99.90;;;;;;4974159;28;20206;-79
2022/10/22 11:41:23;;;;;;;13.82;5.03;;;16.40;99.90;;;;;;5002858;28;20050;-78
2022/10/22 11:43:58;;;;;;;16.10;4.88;;;16.40;99.90;;;;;;4990114;28;20034;-79
2022/10/22 11:46:42;;;;;;;15.15;5.10;;;16.50;99.90;;;;;;4989404;28;20108;-77
2022/10/22 11:49:22;;;;;;;23.35;5.78;;;16.40;99.90;;;;;;4973597;28;20506;-80
2022/10/22 11:51:47;;;;;;;18.58;5.53;;;16.30;99.90;;;;;;4991335;28;20061;-79
2022/10/22 11:54:41;;;;;;;20.00;5.60;;;16.10;99.90;;;;;;5015029;28;20112;-77
2022/10/22 11:57:20;;;;;;;16.48;6.22;;;15.90;99.90;;;;;;5043263;28;20053;-78
2022/10/22 11:59:46;;;;;;;17.23;6.38;;;15.80;99.90;;;;;;5030557;28;20159;-77
2022/10/22 12:02:30;;;;;;;18.33;5.97;;;15.90;99.90;;;;;;5028813;28;20072;-78
2022/10/22 12:05:21;;;;;;;14.82;6.03;;;15.90;99.90;;;;;;5063777;27;20034;-79
2022/10/22 12:07:53;;;;;;;17.00;6.25;;;15.80;99.90;;;;;;5124817;27;20107;-77
2022/10/22 12:10:21;;;;;;;16.60;6.20;;;15.80;99.90;;;;;;5115295;27;20050;-74
2022/10/22 12:13:01;;;;;;;19.02;6.22;;;16.00;99.90;;;;;;5135324;27;20035;-75
2022/10/22 12:15:27;;;;;;;21.33;6.50;;;16.10;99.90;;;;;;5118098;27;20050;-77
2022/10/22 12:18:00;;;;;;;18.83;6.28;;;16.10;99.90;;;;;;5119333;27;20090;-79
2022/10/22 12:20:27;;;;;;;12.38;5.63;;;16.20;99.90;;;;;;5129227;27;20210;-77
2022/10/22 12:22:54;;;;;;;12.43;5.05;;;16.10;99.90;;;;;;5114022;27;20057;-79
2022/10/22 12:25:28;;;;;;;16.13;5.78;;;16.20;99.90;;;;;;5111128;27;20408;-78
2022/10/22 12:27:57;;;;;;;18.90;6.07;;;16.20;99.90;;;;;;5131866;27;20169;-78
2022/10/22 12:30:28;;;;;;;14.80;5.40;;;16.30;99.90;;;;;;5132418;27;20047;-79
2022/10/22 12:32:56;;;;;;;15.52;5.30;;;16.40;99.90;;;;;;5130621;27;20046;-80
2022/10/22 12:39:17;;;;;;;15.13;5.38;;;16.20;99.90;;;;;;5149835;27;20050;-77
2022/10/22 12:41:43;;;;;;;19.83;4.97;;;16.20;99.90;;;;;;5148367;27;20134;-77
2022/10/22 12:44:13;;;;;;;17.33;4.53;;;16.00;99.90;;;;;;5095817;27;20043;-76
2022/10/22 12:46:39;;;;;;;16.80;5.10;;;16.10;99.90;;;;;;5110246;27;20142;-79
2022/10/22 12:49:16;;;;;;;12.30;4.60;;;16.10;99.90;;;;;;5108420;27;20132;-80
2022/10/22 12:51:44;;;;;;;19.08;5.95;;;15.90;99.90;;;;;;5100647;27;20112;-77
2022/10/22 12:54:27;;;;;;;18.98;5.55;;;15.90;99.90;;;;;;5090649;27;20065;-79